Wolf Run, Ohio
Current Conditions -  °F | °C
As of 6:53 AM on Thursday 18 Dec 2014 (Local Time) from KHLG Reporting Station
Overcast Overcast  
Wind Chill: 20°   Ceiling: 2100
Heat Index: 27°   Visibility: 10mi
Dew Point: 19°   Wind: 6mph
Humidity: 72%   Direction: 290°WNW
Pressure: 30.2"   Gusts: NA
Location:  40.47°N, 80.89°W
Report Text: KHLG 181153Z 29005KT 10SM OVC021 M03/M07 A3020 RMK AO2 SLP242 T10281072 11028 21028 53004
Loading
Personal Weather Stations






























Interactive Weather Map New forecast layout! Learn more

10-Day Weather Forecast

Advertisements
Track Severe Weather on mobile